createdAt,value
2022-12-13T00:01:52.161Z,212.23
2022-12-13T00:04:22.070Z,637.13
2022-12-13T00:06:53.938Z,186.40
2022-12-13T00:09:23.288Z,389.63
2022-12-13T00:11:52.444Z,362.07
2022-12-13T00:14:21.143Z,478.60
2022-12-13T00:16:50.478Z,529.60
2022-12-13T00:19:19.759Z,202.83
2022-12-13T00:21:48.434Z,614.00
2022-12-13T00:24:18.341Z,732.47
2022-12-13T00:26:47.209Z,559.33
2022-12-13T00:29:15.582Z,882.27
2022-12-13T00:31:58.575Z,391.87
2022-12-13T00:34:28.234Z,582.23
2022-12-13T00:36:59.109Z,542.33
2022-12-13T00:39:29.238Z,386.23
2022-12-13T00:41:57.787Z,607.27
2022-12-13T00:44:26.142Z,235.77
2022-12-13T00:46:56.689Z,272.90
2022-12-13T00:49:25.858Z,444.70
2022-12-13T00:51:54.389Z,450.70
2022-12-13T00:54:23.148Z,523.47
2022-12-13T00:56:52.876Z,663.07
2022-12-13T00:59:21.472Z,574.13
2022-12-13T01:01:51.059Z,193.87
2022-12-13T01:04:19.404Z,221.70
2022-12-13T01:06:51.805Z,294.83
2022-12-13T01:09:22.169Z,124.70
2022-12-13T01:11:52.100Z,147.27
2022-12-13T01:14:21.704Z,227.97
2022-12-13T01:16:50.283Z,180.03
2022-12-13T01:19:18.664Z,345.93
2022-12-13T01:21:47.143Z,84.90
2022-12-13T01:24:15.836Z,120.53
2022-12-13T01:26:45.023Z,167.77
2022-12-13T01:29:14.719Z,146.23
2022-12-13T01:31:43.186Z,197.50
2022-12-13T01:34:13.715Z,101.20
2022-12-13T01:36:43.162Z,149.57
2022-12-13T01:39:14.738Z,190.53
2022-12-13T01:41:45.763Z,141.13
2022-12-13T01:44:50.686Z,130.70
2022-12-13T01:47:24.774Z,81.13
2022-12-13T01:49:55.298Z,157.67
2022-12-13T01:52:24.225Z,86.90
2022-12-13T01:54:56.792Z,91.23
2022-12-13T01:57:34.324Z,91.57
2022-12-13T02:00:04.334Z,73.00
2022-12-13T02:02:38.155Z,78.87
2022-12-13T02:05:11.367Z,80.43
2022-12-13T02:07:43.126Z,129.17
2022-12-13T02:10:13.052Z,86.23
2022-12-13T02:12:42.870Z,113.77
2022-12-13T02:15:14.847Z,77.87
2022-12-13T02:18:11.289Z,75.60
2022-12-13T02:21:01.812Z,80.70
2022-12-13T02:23:54.654Z,69.23
2022-12-13T02:26:43.053Z,68.47
2022-12-13T02:29:51.395Z,74.50
2022-12-13T02:32:30.485Z,65.83
2022-12-13T02:35:06.529Z,73.47
2022-12-13T02:37:44.368Z,93.37
2022-12-13T02:40:19.787Z,70.63
2022-12-13T02:42:53.619Z,66.97
2022-12-13T02:45:27.453Z,59.60
2022-12-13T02:47:58.846Z,72.17
2022-12-13T02:50:28.756Z,94.10
2022-12-13T02:52:57.620Z,77.23
2022-12-13T02:55:28.215Z,89.47
2022-12-13T02:57:57.167Z,148.37
2022-12-13T03:00:36.321Z,83.00
2022-12-13T03:03:21.827Z,274.30
2022-12-13T03:06:15.793Z,116.83
2022-12-13T03:08:56.509Z,91.80
2022-12-13T03:11:49.285Z,113.97
2022-12-13T03:14:21.803Z,138.97
2022-12-13T03:16:52.704Z,106.53
2022-12-13T03:19:22.782Z,89.60
2022-12-13T03:21:51.593Z,93.63
2022-12-13T03:24:21.866Z,66.13
2022-12-13T03:26:51.345Z,110.60
2022-12-13T03:29:23.869Z,88.10
2022-12-13T03:31:53.584Z,120.67
2022-12-13T03:34:23.691Z,135.27
2022-12-13T03:36:53.486Z,111.33
2022-12-13T03:39:22.914Z,107.33
2022-12-13T03:41:51.582Z,98.10
2022-12-13T03:44:19.931Z,97.60
2022-12-13T03:46:48.700Z,85.97
2022-12-13T03:49:17.669Z,112.47
2022-12-13T03:51:47.912Z,114.57
2022-12-13T03:54:16.642Z,79.10
2022-12-13T03:56:45.156Z,62.03
2022-12-13T03:59:13.762Z,195.97
2022-12-13T04:01:42.011Z,102.87
2022-12-13T04:04:13.669Z,144.10
2022-12-13T04:06:42.349Z,83.53
2022-12-13T04:09:12.371Z,219.27
2022-12-13T04:11:58.199Z,68.37
2022-12-13T04:14:26.671Z,85.57
2022-12-13T04:16:54.961Z,60.57
2022-12-13T04:19:24.191Z,63.60
2022-12-13T04:21:54.375Z,58.43
2022-12-13T04:24:31.903Z,64.63
2022-12-13T04:27:01.337Z,94.47
2022-12-13T04:29:34.070Z,163.60
2022-12-13T04:32:04.256Z,63.57
2022-12-13T04:34:37.331Z,114.80
2022-12-13T04:37:06.470Z,85.80
2022-12-13T04:39:36.519Z,92.67
2022-12-13T04:42:05.953Z,69.87
2022-12-13T04:44:37.046Z,67.03
2022-12-13T04:47:06.002Z,72.83
2022-12-13T04:49:34.967Z,87.83
2022-12-13T04:52:03.404Z,73.77
2022-12-13T04:54:35.540Z,63.90
2022-12-13T04:57:09.105Z,65.37
2022-12-13T04:59:37.903Z,59.57
2022-12-13T05:02:07.668Z,57.57
2022-12-13T05:04:36.333Z,69.33
2022-12-13T05:07:05.078Z,61.37
2022-12-13T05:09:33.417Z,58.27
2022-12-13T05:12:02.241Z,56.23
2022-12-13T05:14:32.835Z,49.17
2022-12-13T05:17:01.687Z,50.53
2022-12-13T05:19:31.495Z,46.90
2022-12-13T05:22:01.836Z,49.33
2022-12-13T05:24:31.624Z,44.80
2022-12-13T05:27:00.528Z,45.63
2022-12-13T05:29:28.952Z,49.17
2022-12-13T05:32:00.039Z,52.80
2022-12-13T05:34:28.619Z,51.80
2022-12-13T05:36:56.946Z,49.57
2022-12-13T05:39:29.442Z,51.90
2022-12-13T05:42:01.412Z,51.77
2022-12-13T05:44:32.699Z,54.10
2022-12-13T05:47:03.081Z,55.33
2022-12-13T05:49:32.615Z,58.77
2022-12-13T05:52:01.072Z,55.20
2022-12-13T05:54:29.524Z,55.30
2022-12-13T05:56:58.178Z,52.57
2022-12-13T05:59:26.641Z,58.83
2022-12-13T06:01:55.023Z,59.60
2022-12-13T06:04:25.112Z,55.67
2022-12-13T06:06:53.709Z,55.20
2022-12-13T06:09:22.647Z,58.63
2022-12-13T06:11:51.440Z,60.03
2022-12-13T06:14:21.870Z,53.60
2022-12-13T06:16:52.160Z,57.20
2022-12-13T06:19:20.887Z,57.97
2022-12-13T06:21:50.534Z,60.57
2022-12-13T06:24:20.818Z,63.23
2022-12-13T06:26:49.671Z,61.13
2022-12-13T06:29:23.415Z,75.80
2022-12-13T06:31:55.102Z,58.60
2022-12-13T06:34:32.400Z,56.97
2022-12-13T06:37:02.296Z,57.17
2022-12-13T06:39:33.223Z,71.50
2022-12-13T06:42:03.396Z,69.80
2022-12-13T06:44:31.950Z,96.93
2022-12-13T06:47:12.219Z,68.80
2022-12-13T06:49:44.278Z,134.57
2022-12-13T06:52:15.725Z,76.30
2022-12-13T06:54:44.935Z,112.43
2022-12-13T06:57:15.090Z,121.43
2022-12-13T06:59:44.151Z,365.23
2022-12-13T07:02:25.339Z,286.67
2022-12-13T07:04:56.391Z,165.97
2022-12-13T07:07:27.115Z,223.30
2022-12-13T07:09:55.587Z,113.67
2022-12-13T07:12:24.577Z,79.00
2022-12-13T07:14:55.003Z,118.93
2022-12-13T07:17:33.228Z,144.60
2022-12-13T07:20:05.015Z,82.87
2022-12-13T07:22:36.855Z,124.97
2022-12-13T07:25:07.485Z,97.00
2022-12-13T07:28:01.373Z,85.73
2022-12-13T07:30:32.443Z,63.83
2022-12-13T07:33:01.555Z,104.40
2022-12-13T07:35:30.487Z,75.47
2022-12-13T07:38:00.868Z,60.57
2022-12-13T07:40:29.705Z,61.80
2022-12-13T07:42:58.376Z,61.87
2022-12-13T07:45:27.229Z,65.40
2022-12-13T07:47:55.815Z,74.07
2022-12-13T07:50:25.793Z,64.80
2022-12-13T07:52:55.710Z,67.70
2022-12-13T07:55:33.383Z,73.97
2022-12-13T07:58:07.949Z,75.00
2022-12-13T08:00:37.078Z,86.00
2022-12-13T08:03:05.930Z,74.30
2022-12-13T08:05:38.902Z,73.60
2022-12-13T08:08:09.144Z,71.13
2022-12-13T08:10:39.566Z,72.93
2022-12-13T08:13:07.835Z,67.03
2022-12-13T08:15:36.013Z,76.77
2022-12-13T08:18:05.140Z,75.77
2022-12-13T08:20:33.707Z,81.70
2022-12-13T08:23:02.979Z,72.47
2022-12-13T08:25:32.099Z,74.50
2022-12-13T08:28:02.754Z,67.47
2022-12-13T08:30:33.172Z,62.50
2022-12-13T08:33:04.847Z,70.13
2022-12-13T08:35:35.191Z,61.40
2022-12-13T08:38:04.786Z,57.27
2022-12-13T08:40:33.223Z,54.73
2022-12-13T08:43:02.996Z,96.23
2022-12-13T08:45:32.186Z,64.90
2022-12-13T08:48:01.047Z,53.90
2022-12-13T08:50:30.579Z,54.93
2022-12-13T08:52:59.255Z,51.00
2022-12-13T08:55:32.373Z,69.90
2022-12-13T08:58:06.948Z,59.77
2022-12-13T09:00:36.581Z,54.97
2022-12-13T09:03:06.159Z,166.03
2022-12-13T09:05:38.745Z,51.33
2022-12-13T09:08:23.978Z,137.00
2022-12-13T09:11:00.243Z,96.63
2022-12-13T09:13:33.149Z,52.60
2022-12-13T09:16:13.976Z,61.00
2022-12-13T09:18:43.170Z,82.80
2022-12-13T09:21:13.895Z,52.67
2022-12-13T09:23:51.148Z,49.33
2022-12-13T09:26:19.388Z,49.57
2022-12-13T09:28:55.299Z,80.27
2022-12-13T09:31:23.675Z,85.80
2022-12-13T09:33:52.338Z,60.70
2022-12-13T09:36:22.811Z,62.73
2022-12-13T09:38:53.332Z,178.27
2022-12-13T09:41:28.800Z,51.67
2022-12-13T09:44:02.630Z,54.17
2022-12-13T09:46:44.983Z,57.40
2022-12-13T09:49:23.270Z,50.07
2022-12-13T09:52:11.228Z,51.97
2022-12-13T09:54:48.285Z,51.37
2022-12-13T09:57:31.381Z,46.03
2022-12-13T10:00:03.609Z,48.27
2022-12-13T10:02:46.092Z,47.20
2022-12-13T10:05:25.327Z,40.97
2022-12-13T10:08:08.095Z,48.73
2022-12-13T10:10:36.703Z,49.77
2022-12-13T10:13:15.853Z,48.60
2022-12-13T10:15:51.658Z,45.87
2022-12-13T10:18:27.775Z,40.37
2022-12-13T10:20:57.137Z,44.57
2022-12-13T10:23:52.406Z,43.10
2022-12-13T10:26:24.161Z,40.57
2022-12-13T10:29:05.387Z,43.97
2022-12-13T10:31:43.815Z,43.27
2022-12-13T10:34:23.715Z,43.17
2022-12-13T10:36:53.000Z,43.33
2022-12-13T10:39:38.466Z,37.87
2022-12-13T10:42:12.483Z,41.70
2022-12-13T10:44:41.204Z,41.40
2022-12-13T10:47:18.917Z,41.07
2022-12-13T10:49:52.112Z,35.83
2022-12-13T10:52:31.963Z,39.90
2022-12-13T10:55:23.635Z,42.23
2022-12-13T10:57:53.623Z,37.47
2022-12-13T11:00:49.193Z,48.13
2022-12-13T11:03:32.927Z,46.97
2022-12-13T11:06:06.921Z,44.57
2022-12-13T11:08:35.426Z,37.27
2022-12-13T11:11:05.406Z,37.00
2022-12-13T11:13:38.557Z,37.73
2022-12-13T11:16:23.356Z,35.70
2022-12-13T11:18:56.584Z,39.43
2022-12-13T11:21:28.724Z,38.13
2022-12-13T11:24:02.541Z,38.63
2022-12-13T11:26:33.801Z,38.43
2022-12-13T11:29:34.647Z,36.67
2022-12-13T11:32:11.193Z,39.90
2022-12-13T11:34:48.020Z,40.13
2022-12-13T11:37:26.785Z,39.03
2022-12-13T11:40:01.267Z,33.20
2022-12-13T11:42:35.038Z,32.30
2022-12-13T11:45:13.676Z,31.58
2022-12-13T11:48:00.703Z,28.93
2022-12-13T11:50:37.023Z,31.00
2022-12-13T11:53:25.304Z,29.43
2022-12-13T11:56:00.397Z,29.07
2022-12-13T12:01:28.294Z,38.90
2022-12-13T12:04:03.856Z,28.00
2022-12-13T12:06:39.502Z,29.67
2022-12-13T12:09:13.107Z,33.47
2022-12-13T12:11:47.894Z,28.37
2022-12-13T12:14:21.191Z,28.30
2022-12-13T12:16:53.983Z,29.80
2022-12-13T12:19:24.882Z,32.50
2022-12-13T12:22:17.322Z,30.57
2022-12-13T12:25:01.513Z,27.60
2022-12-13T12:27:39.780Z,26.27
2022-12-13T12:30:22.498Z,29.40
2022-12-13T12:32:55.592Z,28.77
2022-12-13T12:35:45.821Z,28.90
2022-12-13T12:38:29.680Z,25.20
2022-12-13T12:41:23.913Z,26.73
2022-12-13T12:44:02.593Z,28.97
2022-12-13T12:47:18.251Z,28.40
2022-12-13T12:50:06.137Z,26.80
2022-12-13T12:52:45.866Z,25.33
2022-12-13T12:55:20.975Z,25.73
2022-12-13T12:58:01.446Z,28.37
2022-12-13T13:00:37.566Z,25.80
2022-12-13T13:03:22.568Z,28.87
2022-12-13T13:06:01.870Z,28.03
2022-12-13T13:08:36.880Z,25.40
2022-12-13T13:11:25.139Z,28.50
2022-12-13T13:14:07.086Z,27.57
2022-12-13T13:16:38.667Z,26.97
2022-12-13T13:19:44.391Z,24.40
2022-12-13T13:22:34.217Z,25.73
2022-12-13T13:25:31.484Z,26.40
2022-12-13T13:28:17.514Z,25.20
2022-12-13T13:31:03.699Z,24.47
2022-12-13T13:33:47.659Z,23.90
2022-12-13T13:36:47.215Z,26.83
2022-12-13T13:39:19.284Z,40.60
2022-12-13T13:42:18.098Z,23.23
2022-12-13T13:45:22.341Z,24.87
2022-12-13T13:48:22.793Z,29.83
2022-12-13T13:51:29.119Z,57.67
2022-12-13T13:54:33.794Z,32.40
2022-12-13T14:00:46.643Z,27.33
2022-12-13T14:03:59.903Z,33.77
2022-12-13T14:07:08.633Z,45.97
2022-12-13T14:10:06.831Z,53.37
2022-12-13T14:13:25.866Z,44.20
2022-12-13T14:16:31.895Z,32.20
2022-12-13T14:19:37.953Z,46.23
2022-12-13T14:22:21.403Z,52.60
2022-12-13T14:25:05.422Z,32.80
2022-12-13T14:27:44.167Z,33.37
2022-12-13T14:30:28.621Z,32.97
2022-12-13T14:32:58.497Z,30.17
2022-12-13T14:35:28.435Z,29.97
2022-12-13T14:38:00.539Z,33.77
2022-12-13T14:40:34.904Z,35.10
2022-12-13T14:43:04.439Z,52.33
2022-12-13T14:45:36.587Z,33.93
2022-12-13T14:48:08.007Z,33.27
2022-12-13T14:50:37.935Z,31.10
2022-12-13T14:53:07.689Z,28.50
2022-12-13T14:55:37.804Z,37.10
2022-12-13T14:58:18.013Z,27.77
2022-12-13T15:00:47.012Z,27.80
2022-12-13T15:03:24.535Z,31.10
2022-12-13T15:05:56.290Z,36.53
2022-12-13T15:08:27.375Z,29.23
2022-12-13T15:10:57.578Z,30.77
2022-12-13T15:13:29.978Z,37.37
2022-12-13T15:16:01.747Z,45.30
2022-12-13T15:18:40.485Z,32.07
2022-12-13T15:21:23.397Z,38.93
2022-12-13T15:24:12.667Z,35.43
2022-12-13T15:26:47.865Z,35.60
2022-12-13T15:29:22.243Z,41.07
2022-12-13T15:31:51.791Z,41.07
2022-12-13T15:34:35.930Z,41.57
2022-12-13T15:37:07.739Z,44.53
2022-12-13T15:40:01.556Z,48.53
2022-12-13T15:42:33.339Z,44.13
2022-12-13T15:45:05.321Z,33.30
2022-12-13T15:47:34.472Z,30.43
2022-12-13T15:50:05.837Z,44.53
2022-12-13T15:52:37.011Z,44.70
2022-12-13T15:55:28.441Z,36.70
2022-12-13T15:57:58.825Z,35.87
2022-12-13T16:00:31.383Z,33.83
2022-12-13T16:03:09.466Z,33.57
2022-12-13T16:05:41.373Z,36.40
2022-12-13T16:08:26.455Z,34.90
2022-12-13T16:10:57.442Z,36.40
2022-12-13T16:13:27.821Z,46.63
2022-12-13T16:16:00.028Z,59.08
2022-12-13T16:18:45.994Z,57.30
2022-12-13T16:21:15.341Z,59.70
2022-12-13T16:23:48.839Z,43.60
2022-12-13T16:26:26.124Z,59.57
2022-12-13T16:28:55.264Z,64.23
2022-12-13T16:31:25.654Z,62.03
2022-12-13T16:33:53.877Z,57.50
2022-12-13T16:36:22.398Z,56.77
2022-12-13T16:38:51.364Z,94.87
2022-12-13T16:41:21.825Z,72.43
2022-12-13T16:43:56.198Z,61.77
2022-12-13T16:47:11.403Z,64.37
2022-12-13T16:49:21.098Z,48.37
2022-12-13T16:51:49.586Z,44.80
2022-12-13T16:54:20.611Z,84.17
2022-12-13T16:56:49.296Z,75.87
2022-12-13T16:59:20.851Z,61.57
2022-12-13T17:01:50.258Z,40.53
2022-12-13T17:04:21.609Z,48.47
2022-12-13T17:06:51.408Z,44.03
2022-12-13T17:09:24.276Z,43.87
2022-12-13T17:11:52.790Z,49.40
2022-12-13T17:14:22.705Z,47.50
2022-12-13T17:16:51.832Z,52.00
2022-12-13T17:19:20.425Z,52.17
2022-12-13T17:21:49.411Z,43.43
2022-12-13T17:24:17.742Z,38.70
2022-12-13T17:26:54.404Z,35.40
2022-12-13T17:29:26.311Z,44.97
2022-12-13T17:31:54.604Z,84.67
2022-12-13T17:34:23.036Z,88.07
2022-12-13T17:36:51.711Z,85.07
2022-12-13T17:39:22.420Z,77.47
2022-12-13T17:41:55.140Z,123.67
2022-12-13T17:44:26.654Z,76.10
2022-12-13T17:46:55.954Z,79.37
2022-12-13T17:49:25.531Z,61.70
2022-12-13T17:51:55.038Z,58.73
2022-12-13T17:54:25.231Z,64.73
2022-12-13T17:56:54.437Z,75.60
2022-12-13T17:59:23.714Z,75.53
2022-12-13T18:01:53.593Z,72.53
2022-12-13T18:04:22.418Z,58.57
2022-12-13T18:06:53.014Z,49.10
2022-12-13T18:09:21.277Z,43.87
2022-12-13T18:11:50.147Z,41.57
2022-12-13T18:14:18.523Z,45.40
2022-12-13T18:16:46.920Z,78.20
2022-12-13T18:19:17.350Z,92.13
2022-12-13T18:21:45.635Z,69.23
2022-12-13T18:24:13.967Z,79.27
2022-12-13T18:26:42.273Z,67.67
2022-12-13T18:29:10.746Z,59.43
2022-12-13T18:31:39.760Z,82.43
2022-12-13T18:34:09.087Z,91.60
2022-12-13T18:36:39.601Z,75.70
2022-12-13T18:39:07.921Z,50.93
2022-12-13T18:41:36.364Z,46.40
2022-12-13T18:44:08.004Z,56.60
2022-12-13T18:46:39.783Z,45.40
2022-12-13T18:49:12.158Z,46.30
2022-12-13T18:51:42.120Z,51.53
2022-12-13T18:54:10.953Z,45.07
2022-12-13T18:56:39.729Z,45.33
2022-12-13T18:59:08.545Z,56.17
2022-12-13T19:01:36.844Z,50.10
2022-12-13T19:04:05.611Z,53.10
2022-12-13T19:06:34.450Z,50.90
2022-12-13T19:09:04.506Z,51.53
2022-12-13T19:11:33.132Z,47.20
2022-12-13T19:14:01.485Z,49.73
2022-12-13T19:16:30.164Z,50.20
2022-12-13T19:18:59.580Z,46.70
2022-12-13T19:21:28.774Z,43.33
2022-12-13T19:24:01.202Z,47.40
2022-12-13T19:26:32.671Z,45.10
2022-12-13T19:29:02.190Z,42.03
2022-12-13T19:31:32.753Z,44.90
2022-12-13T19:34:02.194Z,42.77
2022-12-13T19:36:31.679Z,40.93
2022-12-13T19:39:00.393Z,45.23
2022-12-13T19:41:29.393Z,44.83
2022-12-13T19:43:59.198Z,46.63
2022-12-13T19:46:28.031Z,44.23
2022-12-13T19:48:56.835Z,52.63
2022-12-13T19:51:28.800Z,43.73
2022-12-13T19:53:57.008Z,44.37
2022-12-13T19:56:26.306Z,37.97
2022-12-13T19:58:56.098Z,43.40
2022-12-13T20:01:25.807Z,37.90
2022-12-13T20:03:54.579Z,37.17
2022-12-13T20:06:25.336Z,43.90
2022-12-13T20:08:53.938Z,39.80
2022-12-13T20:11:23.906Z,40.43
2022-12-13T20:13:55.952Z,37.70
2022-12-13T20:16:27.448Z,38.63
2022-12-13T20:18:57.576Z,41.37
2022-12-13T20:21:26.675Z,38.50
2022-12-13T20:23:55.494Z,41.80
2022-12-13T20:26:27.336Z,42.10
2022-12-13T20:28:56.522Z,39.33
2022-12-13T20:31:29.047Z,34.77
2022-12-13T20:33:58.477Z,34.37
2022-12-13T20:36:28.986Z,35.47
2022-12-13T20:38:58.945Z,36.43
2022-12-13T20:41:29.181Z,38.60
2022-12-13T20:44:00.174Z,36.50
2022-12-13T20:46:31.751Z,39.23
2022-12-13T20:49:02.993Z,37.73
2022-12-13T20:51:32.960Z,39.37
2022-12-13T20:54:02.237Z,39.73
2022-12-13T20:56:34.328Z,40.30
2022-12-13T20:59:04.162Z,39.20
2022-12-13T21:01:36.422Z,36.47
2022-12-13T21:04:06.199Z,39.07
2022-12-13T21:06:36.074Z,35.67
2022-12-13T21:09:05.613Z,38.83
2022-12-13T21:11:35.963Z,37.67
2022-12-13T21:14:11.171Z,37.33
2022-12-13T21:16:46.963Z,37.43
2022-12-13T21:19:17.234Z,36.17
2022-12-13T21:21:45.720Z,32.87
2022-12-13T21:24:16.048Z,36.43
2022-12-13T21:26:44.883Z,36.77
2022-12-13T21:29:16.035Z,35.93
2022-12-13T21:31:49.750Z,32.60
2022-12-13T21:34:19.566Z,34.37
2022-12-13T21:36:49.351Z,31.33
2022-12-13T21:39:22.556Z,33.97
2022-12-13T21:41:51.219Z,31.57
2022-12-13T21:44:19.933Z,31.70
2022-12-13T21:49:38.707Z,30.57
2022-12-13T21:52:07.096Z,31.60
2022-12-13T21:54:35.261Z,29.97
2022-12-13T21:57:20.905Z,33.23
2022-12-13T21:59:49.549Z,32.30
2022-12-13T22:02:21.181Z,31.80
2022-12-13T22:04:51.258Z,35.57
2022-12-13T22:07:21.725Z,34.90
2022-12-13T22:09:51.329Z,35.83
2022-12-13T22:12:22.461Z,37.37
2022-12-13T22:14:51.383Z,33.93
2022-12-13T22:17:29.666Z,32.20
2022-12-13T22:20:03.288Z,32.00
2022-12-13T22:22:32.558Z,33.20
2022-12-13T22:25:01.046Z,30.53
2022-12-13T22:27:29.370Z,32.97
2022-12-13T22:29:59.690Z,31.73
2022-12-13T22:32:32.852Z,33.23
2022-12-13T22:35:01.196Z,36.17
2022-12-13T22:37:29.633Z,41.03
2022-12-13T22:39:58.046Z,41.17
2022-12-13T22:42:26.292Z,35.23
2022-12-13T22:44:54.593Z,31.83
2022-12-13T22:47:22.996Z,34.67
2022-12-13T22:49:52.673Z,37.97
2022-12-13T22:52:21.186Z,32.93
2022-12-13T22:54:49.917Z,31.00
2022-12-13T22:57:18.199Z,35.07
2022-12-13T22:59:46.592Z,30.20
2022-12-13T23:02:15.136Z,31.13
2022-12-13T23:04:43.702Z,32.30
2022-12-13T23:07:13.765Z,36.77
2022-12-13T23:09:42.661Z,39.73
2022-12-13T23:12:29.972Z,37.13
2022-12-13T23:14:59.628Z,35.30
2022-12-13T23:17:27.904Z,36.40
2022-12-13T23:19:56.233Z,35.77
2022-12-13T23:22:26.914Z,36.43
2022-12-13T23:24:55.139Z,39.83
2022-12-13T23:27:24.613Z,36.80
2022-12-13T23:29:53.092Z,38.97
2022-12-13T23:32:21.604Z,35.37
2022-12-13T23:34:50.200Z,38.90
2022-12-13T23:37:19.637Z,37.70
2022-12-13T23:39:49.270Z,35.97
2022-12-13T23:42:17.779Z,35.40
2022-12-13T23:44:46.094Z,37.63
2022-12-13T23:47:14.501Z,35.60
2022-12-13T23:49:43.232Z,34.17
2022-12-13T23:52:11.698Z,37.30
2022-12-13T23:54:39.940Z,35.43
2022-12-13T23:57:09.620Z,34.43
2022-12-13T23:59:39.555Z,39.07
